Time;durP1;ratioP1;P1;durP2;ratioP2;P2;SDS_P1;SDS_P2;PMS_P1;PMS_P2;Temp;Humidity;BMP_temperature;BMP_pressure;BME280_temperature;BME280_humidity;BME280_pressure;Samples;Min_cycle;Max_cycle;Signal;HPM_P1;HPM_P2
2021/01/19 00:02:02;;;;;;;13.57;5.82;;;;;;;3.04;79.69;100431.88;5108858;28;20054;-72
2021/01/19 00:04:29;;;;;;;10.63;6.20;;;;;;;2.92;79.87;100433.16;5075642;28;20052;-72
2021/01/19 00:06:55;;;;;;;11.77;6.03;;;;;;;2.88;80.14;100429.09;5066438;28;20048;-72
2021/01/19 00:09:21;;;;;;;12.65;6.25;;;;;;;2.79;81.10;100430.06;5092578;28;20043;-72
2021/01/19 00:11:48;;;;;;;12.25;6.38;;;;;;;2.72;81.17;100432.59;5072513;28;20040;-72
2021/01/19 00:14:14;;;;;;;13.63;6.72;;;;;;;2.85;80.32;100432.13;5088053;28;20681;-72
2021/01/19 00:16:41;;;;;;;11.77;6.13;;;;;;;2.85;80.36;100438.34;5076104;28;20043;-72
2021/01/19 00:19:07;;;;;;;11.35;6.10;;;;;;;2.91;80.31;100431.47;5091621;28;20555;-72
2021/01/19 00:21:34;;;;;;;11.63;6.25;;;;;;;2.85;80.22;100438.34;5067609;28;20062;-72
2021/01/19 00:24:00;;;;;;;11.65;5.90;;;;;;;3.00;79.65;100434.06;5082053;28;20048;-72
2021/01/19 00:26:27;;;;;;;11.52;6.53;;;;;;;2.96;80.01;100442.59;5057014;28;20040;-72
2021/01/19 00:28:53;;;;;;;11.85;5.78;;;;;;;2.84;80.14;100431.28;5057888;28;20058;-71
2021/01/19 00:31:19;;;;;;;10.18;5.47;;;;;;;2.87;79.81;100425.56;5080431;28;20118;-72
2021/01/19 00:33:46;;;;;;;11.32;5.75;;;;;;;3.07;79.80;100426.19;5087666;28;20550;-72
2021/01/19 00:36:12;;;;;;;10.95;5.68;;;;;;;2.86;79.96;100428.44;5067145;28;20105;-72
2021/01/19 00:38:38;;;;;;;10.18;5.72;;;;;;;2.99;79.56;100423.44;5050304;28;20050;-72
2021/01/19 00:41:05;;;;;;;11.07;6.05;;;;;;;3.03;78.72;100422.13;5095719;28;20112;-71
2021/01/19 00:43:31;;;;;;;9.63;5.72;;;;;;;3.05;79.50;100411.19;5086633;28;20234;-72
2021/01/19 00:45:57;;;;;;;10.88;5.97;;;;;;;2.88;79.51;100408.41;5062166;28;20141;-72
2021/01/19 00:48:25;;;;;;;11.40;6.15;;;;;;;2.84;80.05;100408.91;5094941;28;20071;-72
2021/01/19 00:50:51;;;;;;;11.25;5.85;;;;;;;3.03;78.80;100400.59;5078720;28;20049;-72
2021/01/19 00:53:17;;;;;;;12.43;5.53;;;;;;;3.05;78.87;100406.66;5095201;28;20513;-72
2021/01/19 00:55:44;;;;;;;14.23;6.93;;;;;;;3.01;79.18;100403.44;5065591;28;20043;-71
2021/01/19 00:58:14;;;;;;;12.20;6.07;;;;;;;2.95;79.42;100405.94;5078139;28;20055;-72
2021/01/19 01:00:41;;;;;;;8.90;5.22;;;;;;;2.94;79.05;100404.25;5095224;28;20040;-72
2021/01/19 01:03:08;;;;;;;11.75;6.32;;;;;;;2.89;79.33;100401.19;5095179;28;20047;-72
2021/01/19 01:05:34;;;;;;;11.50;6.25;;;;;;;2.87;79.72;100397.81;5090721;28;20390;-72
2021/01/19 01:08:02;;;;;;;11.85;6.30;;;;;;;2.89;79.49;100402.03;5064471;28;20040;-72
2021/01/19 01:10:29;;;;;;;9.70;5.90;;;;;;;2.96;79.11;100391.47;5074680;28;20513;-72
2021/01/19 01:12:55;;;;;;;10.00;5.60;;;;;;;2.79;79.62;100400.47;5078253;28;20561;-72
2021/01/19 01:15:30;;;;;;;11.32;6.35;;;;;;;2.90;79.20;100403.72;5094858;28;20047;-72
2021/01/19 01:17:56;;;;;;;10.05;6.30;;;;;;;2.96;79.11;100391.47;5094957;28;20134;-72
2021/01/19 01:20:23;;;;;;;11.80;6.60;;;;;;;2.89;79.06;100385.88;5061699;28;20060;-72
2021/01/19 01:22:50;;;;;;;11.43;6.00;;;;;;;2.91;79.42;100383.03;5112951;28;20051;-72
2021/01/19 01:25:17;;;;;;;12.18;6.82;;;;;;;2.89;79.37;100390.44;5107910;28;20058;-72
2021/01/19 01:27:44;;;;;;;10.80;5.97;;;;;;;3.02;78.94;100383.59;5094437;28;20059;-71
2021/01/19 01:30:15;;;;;;;10.15;6.07;;;;;;;3.05;79.12;100379.72;5095257;28;20171;-72
2021/01/19 01:32:49;;;;;;;10.07;5.65;;;;;;;2.98;79.20;100381.38;5066894;28;20063;-72
2021/01/19 01:35:16;;;;;;;9.70;5.78;;;;;;;3.10;78.25;100382.78;5078236;28;20044;-72
2021/01/19 01:37:46;;;;;;;9.80;6.00;;;;;;;3.00;78.79;100379.38;5082876;28;20071;-72
2021/01/19 01:40:16;;;;;;;9.55;5.93;;;;;;;3.06;78.58;100384.09;5080048;28;20040;-72
2021/01/19 01:42:51;;;;;;;10.82;5.80;;;;;;;3.02;78.77;100382.75;5076471;28;20075;-72
2021/01/19 01:45:20;;;;;;;10.00;5.63;;;;;;;2.86;79.22;100372.75;5065865;28;20067;-72
2021/01/19 01:47:48;;;;;;;10.02;5.65;;;;;;;3.15;78.21;100384.94;5089722;28;20426;-72
2021/01/19 01:50:16;;;;;;;11.27;5.70;;;;;;;3.06;79.00;100370.66;5094459;28;20047;-72
2021/01/19 01:52:42;;;;;;;9.30;5.50;;;;;;;2.94;78.74;100366.56;5060842;28;20134;-73
2021/01/19 01:55:09;;;;;;;9.70;5.70;;;;;;;3.20;78.33;100366.47;5051571;28;20060;-73
2021/01/19 01:57:37;;;;;;;10.95;5.75;;;;;;;3.24;77.57;100368.66;5082254;28;20097;-72
2021/01/19 02:00:08;;;;;;;11.55;5.57;;;;;;;3.21;77.80;100358.22;5085310;28;20062;-72
2021/01/19 02:02:35;;;;;;;10.70;6.47;;;;;;;3.17;77.83;100348.78;5074875;28;20473;-72
2021/01/19 02:05:03;;;;;;;9.75;5.65;;;;;;;3.13;78.35;100351.97;5073874;28;20048;-72
2021/01/19 02:08:07;;;;;;;8.32;5.45;;;;;;;2.93;78.77;100348.72;5089543;28;20036;-72
2021/01/19 02:10:39;;;;;;;12.32;6.25;;;;;;;3.08;78.28;100349.78;5083559;28;20104;-72
2021/01/19 02:13:32;;;;;;;9.43;5.63;;;;;;;3.24;77.90;100349.81;5081451;28;20051;-71
2021/01/19 02:16:16;;;;;;;10.32;5.95;;;;;;;3.25;77.95;100337.19;5072335;28;20048;-71
2021/01/19 02:18:48;;;;;;;8.85;5.47;;;;;;;3.21;77.37;100336.69;5090176;28;20067;-71
2021/01/19 02:21:55;;;;;;;9.40;5.07;;;;;;;3.23;77.62;100340.03;5089981;28;20106;-71
2021/01/19 02:24:31;;;;;;;9.20;5.28;;;;;;;3.08;77.76;100336.34;5095281;28;20074;-70
2021/01/19 02:27:21;;;;;;;10.40;5.78;;;;;;;3.18;77.92;100331.63;5085420;28;20140;-71
2021/01/19 02:29:56;;;;;;;9.68;5.57;;;;;;;3.24;77.48;100330.13;5071177;28;20055;-71
2021/01/19 02:32:42;;;;;;;11.13;6.45;;;;;;;3.03;78.20;100338.66;5093962;28;20136;-71
2021/01/19 02:35:13;;;;;;;9.80;5.93;;;;;;;3.11;77.87;100335.16;5094081;28;20075;-72
2021/01/19 02:38:17;;;;;;;9.40;5.35;;;;;;;3.31;77.15;100334.69;5053831;28;20141;-72
2021/01/19 02:40:46;;;;;;;9.93;5.55;;;;;;;3.39;76.73;100343.78;5076389;28;20043;-72
2021/01/19 02:43:20;;;;;;;9.37;5.90;;;;;;;3.26;76.93;100337.03;5093433;28;20501;-72
2021/01/19 02:45:48;;;;;;;9.07;5.55;;;;;;;3.38;76.83;100326.78;5093599;28;20051;-72
2021/01/19 02:48:16;;;;;;;9.25;5.35;;;;;;;3.34;76.99;100325.44;5111044;28;20537;-72
2021/01/19 02:50:43;;;;;;;9.43;4.93;;;;;;;3.41;76.50;100328.31;5111485;28;20114;-71
2021/01/19 02:53:10;;;;;;;9.48;5.03;;;;;;;3.40;76.33;100327.47;5076101;28;20432;-72
2021/01/19 02:55:38;;;;;;;9.13;5.45;;;;;;;3.36;76.73;100335.03;5080011;28;20043;-71
2021/01/19 02:58:19;;;;;;;11.00;5.28;;;;;;;3.38;76.61;100331.31;5093206;28;20052;-72
2021/01/19 03:01:08;;;;;;;8.82;5.15;;;;;;;3.30;76.61;100316.84;5093112;28;20570;-71
2021/01/19 03:03:38;;;;;;;9.10;5.03;;;;;;;3.30;77.15;100316.84;5076424;28;20570;-72
2021/01/19 03:06:15;;;;;;;14.52;5.78;;;;;;;3.30;77.26;100324.91;5088262;28;20525;-71
2021/01/19 03:08:42;;;;;;;8.65;5.22;;;;;;;3.07;77.59;100320.34;5071570;28;20126;-71
2021/01/19 03:11:13;;;;;;;11.50;5.30;;;;;;;3.32;76.75;100317.50;5093033;28;20459;-71
2021/01/19 03:13:46;;;;;;;10.95;6.22;;;;;;;3.25;76.87;100305.72;5092930;28;20452;-71
2021/01/19 03:16:15;;;;;;;19.27;11.65;;;;;;;3.06;77.74;100314.13;5076328;28;20050;-71
2021/01/19 03:18:43;;;;;;;11.27;5.88;;;;;;;3.09;77.35;100316.47;5093053;28;20048;-72
2021/01/19 03:21:09;;;;;;;9.13;5.90;;;;;;;2.96;77.94;100310.72;5093104;28;20043;-72
2021/01/19 03:23:37;;;;;;;10.07;5.93;;;;;;;2.96;77.83;100310.72;5080884;28;20040;-72
2021/01/19 03:26:04;;;;;;;8.90;5.50;;;;;;;2.86;78.00;100310.00;5091013;28;20044;-72
2021/01/19 03:28:33;;;;;;;9.75;5.43;;;;;;;2.86;78.01;100305.47;5081305;28;20043;-71
2021/01/19 03:31:01;;;;;;;10.25;5.80;;;;;;;2.76;78.68;100309.34;5076392;28;20052;-71
2021/01/19 03:33:28;;;;;;;8.32;5.00;;;;;;;2.67;78.71;100301.22;5091010;28;20067;-72
2021/01/19 03:35:54;;;;;;;8.38;5.50;;;;;;;2.59;79.31;100303.88;5107804;28;20044;-72
2021/01/19 03:38:21;;;;;;;9.25;5.63;;;;;;;2.49;79.51;100303.16;5092616;28;20134;-71
2021/01/19 03:40:47;;;;;;;12.75;5.75;;;;;;;2.51;79.18;100289.56;5075746;28;20509;-72
2021/01/19 03:43:13;;;;;;;10.50;5.32;;;;;;;2.49;79.29;100280.81;5092646;28;20048;-71
2021/01/19 03:45:40;;;;;;;8.52;5.10;;;;;;;2.46;79.56;100289.19;5075451;28;20062;-72
2021/01/19 03:48:07;;;;;;;7.88;4.50;;;;;;;2.41;79.70;100288.84;5075994;28;20047;-71
2021/01/19 03:50:33;;;;;;;8.57;5.07;;;;;;;2.33;79.81;100290.50;5079302;28;20067;-71
2021/01/19 03:52:59;;;;;;;10.90;5.45;;;;;;;2.38;79.68;100284.66;5096342;28;20048;-71
2021/01/19 03:55:30;;;;;;;8.35;4.75;;;;;;;2.41;79.89;100287.00;5069431;28;20043;-72
2021/01/19 03:57:58;;;;;;;8.45;5.25;;;;;;;2.50;79.39;100283.31;5096893;28;20047;-72
2021/01/19 04:00:24;;;;;;;8.23;5.07;;;;;;;2.53;79.35;100283.00;5096540;28;20075;-71
2021/01/19 04:02:51;;;;;;;11.00;5.40;;;;;;;2.58;79.00;100275.28;5096263;28;20497;-71
2021/01/19 04:05:18;;;;;;;9.32;5.03;;;;;;;2.59;79.22;100281.53;5096449;28;20048;-72
2021/01/19 04:07:44;;;;;;;8.93;5.72;;;;;;;2.59;79.07;100271.59;5087191;28;20044;-71
2021/01/19 04:10:13;;;;;;;13.57;5.97;;;;;;;2.54;79.34;100267.72;5079313;28;20054;-71
2021/01/19 04:12:41;;;;;;;9.95;5.55;;;;;;;2.45;79.43;100263.31;5096256;28;20043;-71
2021/01/19 04:15:08;;;;;;;11.05;5.88;;;;;;;2.38;79.83;100260.44;5079421;28;20044;-71
2021/01/19 04:17:35;;;;;;;10.20;6.00;;;;;;;2.49;79.77;100261.97;5063295;28;20063;-72
2021/01/19 04:20:02;;;;;;;10.93;5.82;;;;;;;2.44;79.69;100254.38;5066651;28;20055;-71
2021/01/19 04:22:28;;;;;;;9.57;5.65;;;;;;;2.42;79.76;100253.75;5079348;28;20078;-72
2021/01/19 04:24:55;;;;;;;6.82;4.93;;;;;;;2.44;79.74;100249.00;5088516;28;20104;-71
2021/01/19 04:27:21;;;;;;;9.13;5.53;;;;;;;2.35;80.45;100245.47;5095220;28;20566;-72
2021/01/19 04:29:48;;;;;;;9.95;5.18;;;;;;;2.33;80.87;100238.56;5078666;28;20093;-71
2021/01/19 04:32:15;;;;;;;11.18;6.57;;;;;;;2.34;80.54;100238.41;5095688;28;20054;-72
2021/01/19 04:34:41;;;;;;;9.18;5.40;;;;;;;2.29;80.41;100234.53;5078703;28;20050;-72
2021/01/19 04:37:08;;;;;;;8.50;5.65;;;;;;;2.33;80.78;100239.41;5061381;28;20078;-71
2021/01/19 04:39:34;;;;;;;7.85;5.45;;;;;;;2.34;80.38;100232.19;5113312;28;20101;-71
2021/01/19 04:42:00;;;;;;;9.52;5.65;;;;;;;2.30;80.58;100234.38;5078751;28;20528;-71
2021/01/19 04:44:27;;;;;;;10.18;5.28;;;;;;;2.35;80.61;100233.88;5078905;28;20044;-72
2021/01/19 04:46:54;;;;;;;9.98;5.53;;;;;;;2.39;80.46;100235.25;5095253;28;20054;-71
2021/01/19 04:49:20;;;;;;;9.27;5.40;;;;;;;2.42;80.37;100242.97;5095281;28;20529;-72
2021/01/19 04:51:48;;;;;;;9.68;5.25;;;;;;;2.42;80.82;100234.91;5095582;28;20112;-72
2021/01/19 04:54:18;;;;;;;9.32;5.35;;;;;;;2.46;80.49;100238.09;5071122;28;20077;-70
2021/01/19 04:56:54;;;;;;;8.90;5.10;;;;;;;2.47;80.52;100237.94;5066968;28;20064;-72
2021/01/19 04:59:25;;;;;;;8.38;5.38;;;;;;;2.48;80.17;100239.63;5095458;28;20130;-72
2021/01/19 05:02:00;;;;;;;9.38;5.22;;;;;;;2.50;80.18;100240.28;5094952;28;20085;-72
2021/01/19 05:04:26;;;;;;;8.88;4.85;;;;;;;2.54;80.16;100238.13;5091992;28;20059;-72
2021/01/19 05:07:13;;;;;;;9.00;4.88;;;;;;;2.56;80.08;100233.44;5110231;28;20122;-72
2021/01/19 05:09:50;;;;;;;8.70;5.63;;;;;;;2.60;79.96;100221.34;5078099;28;20040;-72
2021/01/19 05:12:23;;;;;;;8.82;4.97;;;;;;;2.59;80.04;100217.81;5078613;28;20097;-71
2021/01/19 05:14:51;;;;;;;9.82;5.70;;;;;;;2.64;79.96;100225.38;5078547;28;20063;-72
2021/01/19 05:17:21;;;;;;;8.75;5.55;;;;;;;2.71;79.44;100215.66;5095905;28;20505;-72
2021/01/19 05:19:47;;;;;;;8.35;5.28;;;;;;;2.72;79.40;100211.94;5125259;28;20043;-71
2021/01/19 05:22:15;;;;;;;9.82;5.53;;;;;;;2.83;78.71;100208.06;5097936;28;20394;-71
2021/01/19 05:24:45;;;;;;;9.15;5.63;;;;;;;2.77;79.21;100211.47;5072883;28;20048;-72
2021/01/19 05:27:12;;;;;;;8.77;5.53;;;;;;;2.74;79.40;100212.63;5112797;28;20074;-72
2021/01/19 05:29:39;;;;;;;7.53;5.10;;;;;;;2.75;79.14;100200.88;5094489;28;20048;-70
2021/01/19 05:32:06;;;;;;;7.40;4.97;;;;;;;2.74;79.32;100198.34;5080613;28;20044;-72
2021/01/19 05:34:36;;;;;;;7.20;4.32;;;;;;;2.74;79.19;100193.81;5055109;28;20123;-72
2021/01/19 05:37:03;;;;;;;6.45;4.22;;;;;;;2.77;79.05;100200.69;5065701;28;20074;-71
2021/01/19 05:39:29;;;;;;;7.18;4.65;;;;;;;2.83;78.92;100195.47;5079812;28;20481;-72
2021/01/19 05:41:56;;;;;;;5.53;4.00;;;;;;;2.77;79.14;100192.63;5077789;28;20078;-71
2021/01/19 05:44:27;;;;;;;6.90;4.20;;;;;;;2.80;78.97;100195.78;5090797;28;20055;-71
2021/01/19 05:46:55;;;;;;;8.20;4.18;;;;;;;2.82;78.55;100190.25;5083394;28;20044;-71
2021/01/19 05:49:23;;;;;;;6.53;4.00;;;;;;;2.81;78.91;100180.50;5090737;28;20101;-72
2021/01/19 05:52:03;;;;;;;9.18;4.85;;;;;;;2.81;79.03;100180.50;5070028;28;20077;-72
2021/01/19 05:54:31;;;;;;;7.47;4.50;;;;;;;2.81;79.27;100191.25;5065002;28;20044;-71
2021/01/19 05:57:00;;;;;;;7.35;4.18;;;;;;;2.83;79.23;100175.78;5076968;28;20421;-72
2021/01/19 05:59:31;;;;;;;6.15;4.20;;;;;;;2.81;79.02;100177.81;5060660;28;20043;-73
2021/01/19 06:02:03;;;;;;;6.15;3.90;;;;;;;2.85;79.03;100169.22;5094174;28;20529;-72
2021/01/19 06:04:32;;;;;;;7.05;4.13;;;;;;;2.82;78.87;100169.56;5074046;28;20054;-72
2021/01/19 06:06:59;;;;;;;5.93;4.00;;;;;;;2.82;78.79;100148.03;5071685;28;20123;-73
2021/01/19 06:09:25;;;;;;;8.65;3.90;;;;;;;2.84;78.43;100150.56;5111763;28;20297;-72
2021/01/19 06:11:56;;;;;;;8.63;4.07;;;;;;;2.81;78.98;100140.97;5111622;28;20097;-72
2021/01/19 06:14:25;;;;;;;7.05;4.30;;;;;;;2.82;79.04;100139.13;5093981;28;20079;-72
2021/01/19 06:17:12;;;;;;;8.98;4.40;;;;;;;2.79;78.86;100136.75;5060405;28;20138;-72
2021/01/19 06:19:41;;;;;;;5.93;3.78;;;;;;;2.81;79.07;100135.59;5045337;28;20073;-72
2021/01/19 06:22:12;;;;;;;6.90;3.90;;;;;;;2.76;78.92;100131.75;5059211;28;20052;-72
2021/01/19 06:24:39;;;;;;;6.80;4.65;;;;;;;2.80;79.24;100125.00;5066352;28;20093;-72
2021/01/19 06:27:07;;;;;;;7.75;4.50;;;;;;;2.79;78.89;100131.38;5091671;28;20051;-72
2021/01/19 06:29:33;;;;;;;7.25;4.90;;;;;;;2.77;79.02;100120.81;5093317;28;20047;-72
2021/01/19 06:32:02;;;;;;;8.85;4.60;;;;;;;2.78;79.24;100132.41;5060095;28;20051;-72
2021/01/19 06:34:38;;;;;;;7.90;4.65;;;;;;;2.77;78.66;100122.66;5076865;28;20052;-72
2021/01/19 06:37:08;;;;;;;8.35;4.45;;;;;;;2.80;78.62;100116.91;5076085;28;20122;-72
2021/01/19 06:39:38;;;;;;;6.22;4.10;;;;;;;2.77;78.50;100106.53;5076984;28;20051;-72
2021/01/19 06:42:11;;;;;;;11.55;4.60;;;;;;;2.78;78.74;100102.78;5076678;28;20051;-72
2021/01/19 06:44:47;;;;;;;10.38;5.13;;;;;;;2.78;78.77;100098.25;5077902;28;20039;-72
2021/01/19 06:47:15;;;;;;;11.10;4.22;;;;;;;2.83;78.28;100084.31;5076559;28;20151;-72
2021/01/19 06:49:55;;;;;;;11.10;5.45;;;;;;;2.77;78.48;100082.31;5062173;28;20048;-72
2021/01/19 06:52:22;;;;;;;8.80;4.93;;;;;;;2.76;78.04;100077.94;5077067;28;20551;-72
2021/01/19 06:54:54;;;;;;;8.23;4.70;;;;;;;2.75;78.30;100076.25;5069294;28;20047;-72
2021/01/19 06:57:45;;;;;;;8.85;4.25;;;;;;;2.79;78.08;100064.97;5093540;28;20120;-72
2021/01/19 07:00:23;;;;;;;9.88;4.68;;;;;;;2.73;77.69;100064.81;5100551;28;20094;-72
2021/01/19 07:03:20;;;;;;;8.00;4.13;;;;;;;2.75;77.42;100060.13;5108408;28;20074;-71
2021/01/19 07:05:51;;;;;;;8.07;4.15;;;;;;;2.72;77.68;100053.22;5095155;28;20047;-71
2021/01/19 07:08:20;;;;;;;9.13;4.35;;;;;;;2.76;77.52;100045.66;5091211;28;20075;-71
2021/01/19 07:11:05;;;;;;;;;;;;;;;2.77;76.99;100041.94;5093919;28;20047;-71
2021/01/19 07:13:37;;;;;;;7.32;3.60;;;;;;;2.73;77.04;100043.31;5076463;28;19962;-72
2021/01/19 07:16:05;;;;;;;7.50;3.97;;;;;;;2.72;77.15;100036.25;5093102;28;20130;-72
2021/01/19 07:19:14;;;;;;;8.52;3.60;;;;;;;2.75;76.33;100035.91;5076792;28;20092;-72
2021/01/19 07:22:03;;;;;;;10.63;3.55;;;;;;;2.74;76.54;100029.69;5092829;28;20505;-72
2021/01/19 07:24:46;;;;;;;6.53;3.00;;;;;;;2.74;76.02;100018.91;5068440;28;20105;-73
2021/01/19 07:27:18;;;;;;;8.20;3.40;;;;;;;2.72;76.16;100020.09;5079474;28;20122;-72
2021/01/19 07:29:44;;;;;;;9.18;3.67;;;;;;;2.73;75.91;100016.41;5097410;28;20048;-72
2021/01/19 07:32:20;;;;;;;10.23;3.47;;;;;;;2.72;75.81;100009.34;5097036;28;20050;-72
2021/01/19 07:34:47;;;;;;;8.10;3.00;;;;;;;2.78;75.58;100014.00;5096846;28;20104;-72
2021/01/19 07:37:13;;;;;;;7.20;2.88;;;;;;;2.76;75.62;100016.06;5095945;28;20535;-72
2021/01/19 07:39:40;;;;;;;6.75;3.33;;;;;;;2.78;75.29;100009.47;5096905;28;20050;-72
2021/01/19 07:42:11;;;;;;;6.85;3.42;;;;;;;2.78;75.24;100003.25;5096682;28;20093;-72
2021/01/19 07:44:37;;;;;;;8.80;3.88;;;;;;;2.83;74.72;99998.19;5096737;28;20126;-72
2021/01/19 07:47:11;;;;;;;7.22;4.38;;;;;;;2.87;74.49;100000.38;5114815;28;20044;-73
2021/01/19 07:49:38;;;;;;;8.40;4.75;;;;;;;2.91;74.34;99998.19;5080940;28;20040;-72
2021/01/19 07:52:09;;;;;;;10.48;3.97;;;;;;;3.02;73.71;99997.81;5097478;28;20059;-72
2021/01/19 07:54:36;;;;;;;9.05;4.15;;;;;;;3.06;73.66;99988.41;5072144;28;20044;-72
2021/01/19 07:57:15;;;;;;;6.28;3.83;;;;;;;3.05;73.67;99980.50;5079882;28;20064;-72
2021/01/19 07:59:45;;;;;;;6.30;3.28;;;;;;;3.02;73.65;99984.38;5062805;28;20131;-72
2021/01/19 08:02:21;;;;;;;11.15;3.70;;;;;;;3.05;73.19;99972.41;5097085;28;20047;-72
2021/01/19 08:04:58;;;;;;;8.57;3.28;;;;;;;3.06;73.42;99977.63;5097228;28;20122;-72
2021/01/19 08:07:24;;;;;;;9.35;3.78;;;;;;;3.08;72.42;99962.16;5091206;28;20073;-71
2021/01/19 08:09:52;;;;;;;5.32;2.85;;;;;;;3.11;72.81;99961.78;5067458;28;20055;-72
2021/01/19 08:12:18;;;;;;;7.68;3.00;;;;;;;3.10;72.66;99962.81;5116183;28;20130;-72
2021/01/19 08:14:51;;;;;;;5.38;2.50;;;;;;;3.12;72.03;99946.47;5096550;28;20043;-72
2021/01/19 08:17:18;;;;;;;7.15;2.53;;;;;;;3.13;72.13;99951.66;5096517;28;20043;-72
2021/01/19 08:19:45;;;;;;;5.55;2.70;;;;;;;3.14;71.55;99942.56;5096117;28;20428;-71
2021/01/19 08:22:13;;;;;;;6.00;2.78;;;;;;;3.18;71.52;99932.28;5108127;28;20074;-72
2021/01/19 08:24:41;;;;;;;9.50;2.97;;;;;;;3.22;71.17;99929.09;5103297;28;20048;-72
2021/01/19 08:27:09;;;;;;;5.22;2.50;;;;;;;3.36;71.08;99927.50;5094567;28;20490;-72
2021/01/19 08:29:37;;;;;;;6.55;2.65;;;;;;;3.38;70.51;99921.94;5079344;28;20043;-72
2021/01/19 08:32:04;;;;;;;7.78;3.17;;;;;;;3.35;70.23;99923.97;5095815;28;20052;-72
2021/01/19 08:34:32;;;;;;;6.45;2.60;;;;;;;3.40;70.06;99922.59;5077313;28;20630;-72
2021/01/19 08:37:00;;;;;;;4.25;2.20;;;;;;;3.40;69.34;99898.38;5095265;28;20048;-72
2021/01/19 08:39:27;;;;;;;8.95;2.45;;;;;;;3.36;69.60;99893.34;5095582;28;20139;-72
2021/01/19 08:41:54;;;;;;;6.30;2.38;;;;;;;3.33;70.00;99888.31;5096051;28;20044;-71
2021/01/19 08:44:36;;;;;;;5.30;2.25;;;;;;;3.34;69.26;99884.59;5083953;28;20048;-71
2021/01/19 08:47:03;;;;;;;5.47;2.50;;;;;;;3.30;69.83;99894.03;5095438;28;20047;-72
2021/01/19 08:49:34;;;;;;;8.85;3.03;;;;;;;3.38;69.41;99881.56;5078641;28;20574;-72
2021/01/19 08:52:02;;;;;;;7.22;2.50;;;;;;;3.44;68.99;99883.53;5113711;28;20070;-72
2021/01/19 08:54:32;;;;;;;6.38;2.25;;;;;;;3.50;68.90;99872.84;5087396;28;20501;-72
2021/01/19 08:56:58;;;;;;;7.13;2.47;;;;;;;3.49;68.65;99871.19;5078834;28;20044;-72
2021/01/19 08:59:49;;;;;;;10.57;2.15;;;;;;;3.47;68.84;99875.91;5082661;28;20058;-72
2021/01/19 09:02:15;;;;;;;7.93;2.45;;;;;;;3.54;68.15;99862.56;5110770;28;20124;-72
2021/01/19 09:04:44;;;;;;;7.78;3.80;;;;;;;3.58;68.30;99864.72;5099628;28;20097;-72
2021/01/19 09:07:11;;;;;;;5.43;2.42;;;;;;;3.55;67.82;99857.00;5060569;28;20098;-72
2021/01/19 09:09:45;;;;;;;9.30;2.80;;;;;;;3.58;67.74;99843.19;5095564;28;20054;-72
2021/01/19 09:12:16;;;;;;;6.78;2.22;;;;;;;3.64;67.95;99841.63;5078393;28;20043;-72
2021/01/19 09:14:48;;;;;;;8.27;2.47;;;;;;;3.69;67.50;99844.63;5095035;28;20056;-71
2021/01/19 09:17:21;;;;;;;6.38;2.25;;;;;;;3.64;67.65;99833.53;5112917;28;20051;-72
2021/01/19 09:19:48;;;;;;;6.45;2.53;;;;;;;3.63;67.38;99837.25;5078023;28;20548;-72
2021/01/19 09:22:27;;;;;;;6.90;2.38;;;;;;;3.66;67.66;99835.03;5113581;28;20071;-72
2021/01/19 09:24:55;;;;;;;6.15;1.52;;;;;;;3.62;66.70;99828.34;5070013;28;20102;-72
2021/01/19 09:27:22;;;;;;;8.88;2.30;;;;;;;3.69;67.71;99828.44;5092661;28;20046;-72
2021/01/19 09:29:49;;;;;;;8.60;2.67;;;;;;;3.70;67.29;99828.28;5077756;28;20157;-71
2021/01/19 09:32:18;;;;;;;8.20;2.53;;;;;;;3.79;67.30;99812.03;5077487;28;20413;-72
2021/01/19 09:34:46;;;;;;;5.50;2.10;;;;;;;3.73;67.02;99816.28;5094304;28;20054;-72
2021/01/19 09:37:13;;;;;;;5.80;2.13;;;;;;;3.69;66.99;99802.34;5060408;28;20071;-72
2021/01/19 09:39:42;;;;;;;7.47;2.30;;;;;;;3.67;66.48;99796.28;5077181;28;20044;-72
2021/01/19 09:42:08;;;;;;;8.93;2.58;;;;;;;3.71;66.94;99794.06;5078043;28;20047;-72
2021/01/19 09:44:39;;;;;;;5.00;2.25;;;;;;;3.73;66.92;99796.59;5077665;28;20040;-71
2021/01/19 09:47:07;;;;;;;4.75;1.50;;;;;;;3.73;66.72;99794.75;5093526;28;20054;-72
2021/01/19 09:49:35;;;;;;;7.55;2.50;;;;;;;3.70;66.93;99781.63;5094460;28;20100;-72
2021/01/19 09:52:12;;;;;;;5.40;2.22;;;;;;;3.65;67.06;99776.78;5112082;28;20513;-72
2021/01/19 09:54:39;;;;;;;7.70;1.98;;;;;;;3.59;66.98;99772.13;5064073;28;20044;-72
2021/01/19 09:57:09;;;;;;;10.20;2.50;;;;;;;3.63;67.08;99778.81;5071869;28;20059;-72
2021/01/19 09:59:39;;;;;;;6.03;2.30;;;;;;;3.55;67.78;99767.28;5077613;28;20077;-72
2021/01/19 10:02:06;;;;;;;5.88;2.40;;;;;;;3.55;67.88;99761.88;5077549;28;20063;-72
2021/01/19 10:04:33;;;;;;;7.47;2.38;;;;;;;3.55;67.07;99759.19;5077237;28;20168;-72
2021/01/19 10:07:00;;;;;;;4.82;2.17;;;;;;;3.54;67.26;99757.50;5087961;28;20130;-72
2021/01/19 10:09:27;;;;;;;5.95;2.42;;;;;;;3.54;67.32;99752.13;5093946;28;20043;-72
2021/01/19 10:12:02;;;;;;;6.05;2.08;;;;;;;3.54;67.26;99744.03;5094066;28;20055;-72
2021/01/19 10:14:31;;;;;;;5.25;2.35;;;;;;;3.48;67.76;99728.59;5112389;28;20044;-72
2021/01/19 10:16:57;;;;;;;10.00;2.67;;;;;;;3.49;67.93;99719.50;5076989;28;20042;-72
2021/01/19 10:19:26;;;;;;;6.95;2.42;;;;;;;3.47;67.55;99729.63;5094140;28;20043;-72
2021/01/19 10:21:54;;;;;;;9.77;2.67;;;;;;;3.52;67.63;99705.69;5077036;28;20044;-72
2021/01/19 10:24:22;;;;;;;5.55;1.98;;;;;;;3.49;67.21;99700.66;5088275;28;20078;-72
2021/01/19 10:27:10;;;;;;;6.55;2.47;;;;;;;3.43;68.87;99702.25;5053796;28;20043;-72
2021/01/19 10:29:38;;;;;;;5.63;2.10;;;;;;;3.41;69.29;99690.81;5054220;28;20460;-72
2021/01/19 10:32:07;;;;;;;4.55;2.28;;;;;;;3.42;70.88;99686.28;5094167;28;20077;-72
2021/01/19 10:34:34;;;;;;;8.20;3.33;;;;;;;3.34;72.33;99681.78;5077267;28;20509;-72
2021/01/19 10:37:01;;;;;;;7.32;2.67;;;;;;;3.07;74.37;99683.22;5092975;28;20119;-72
2021/01/19 10:39:30;;;;;;;5.68;2.13;;;;;;;2.92;75.80;99671.53;5093373;28;20104;-72
2021/01/19 10:41:58;;;;;;;7.35;2.72;;;;;;;2.83;76.99;99659.16;5076167;28;20059;-72
2021/01/19 10:44:25;;;;;;;5.97;2.92;;;;;;;2.77;77.54;99657.22;5092783;28;20052;-72
2021/01/19 10:46:56;;;;;;;6.35;2.90;;;;;;;2.78;77.91;99642.72;5110714;28;20055;-72
2021/01/19 10:49:28;;;;;;;7.05;3.05;;;;;;;2.76;77.53;99642.09;5111464;28;20679;-72
2021/01/19 10:51:54;;;;;;;7.97;2.72;;;;;;;2.75;77.94;99637.72;5076464;28;20047;-72
2021/01/19 10:54:21;;;;;;;10.57;4.35;;;;;;;2.80;77.94;99621.84;5085320;28;20558;-72
2021/01/19 10:57:03;;;;;;;8.90;3.60;;;;;;;2.76;77.73;99612.50;5110193;28;20031;-72
2021/01/19 10:59:30;;;;;;;8.68;3.13;;;;;;;2.73;78.52;99602.94;5092384;28;20398;-72
2021/01/19 11:02:01;;;;;;;8.77;3.03;;;;;;;2.78;77.72;99597.00;5055627;28;20125;-72
2021/01/19 11:04:27;;;;;;;6.97;2.67;;;;;;;2.68;77.86;99598.09;5078957;28;20075;-72
2021/01/19 11:06:54;;;;;;;8.20;2.80;;;;;;;2.66;79.16;99591.22;5082631;28;20040;-72
2021/01/19 11:09:20;;;;;;;6.80;2.70;;;;;;;2.67;77.95;99585.66;5091713;28;20052;-72
2021/01/19 11:11:47;;;;;;;5.78;2.72;;;;;;;2.74;78.68;99576.88;5076272;28;20130;-72
2021/01/19 11:14:14;;;;;;;8.48;2.50;;;;;;;2.67;78.63;99569.53;5110945;28;20062;-72
2021/01/19 11:16:42;;;;;;;7.75;2.80;;;;;;;2.70;79.15;99549.50;5110830;28;20071;-71
2021/01/19 11:19:13;;;;;;;6.55;2.53;;;;;;;2.75;79.06;99555.16;5092103;28;20047;-72
2021/01/19 11:21:41;;;;;;;8.23;2.45;;;;;;;2.80;78.12;99547.38;5091942;28;20052;-72
2021/01/19 11:24:11;;;;;;;10.75;2.80;;;;;;;2.77;79.03;99533.47;5069965;28;20055;-72
2021/01/19 11:26:39;;;;;;;6.13;2.15;;;;;;;2.76;78.31;99529.94;5082837;28;20487;-72
2021/01/19 11:29:09;;;;;;;9.63;2.50;;;;;;;2.82;79.27;99522.97;5056429;28;20506;-71
2021/01/19 11:31:36;;;;;;;8.88;3.42;;;;;;;2.80;79.55;99508.88;5075658;28;20082;-72
2021/01/19 11:34:05;;;;;;;6.65;2.65;;;;;;;2.82;79.08;99506.81;5092269;28;20051;-72
2021/01/19 11:36:33;;;;;;;;;;;;;;;2.89;78.38;99497.00;5092193;28;20036;-71
2021/01/19 11:39:00;;;;;;;5.35;2.45;;;;;;;2.86;79.46;99492.00;5092870;28;19920;-71
2021/01/19 11:41:27;;;;;;;12.68;3.13;;;;;;;2.82;79.66;99485.31;5092957;28;20078;-72
2021/01/19 11:43:55;;;;;;;5.75;2.00;;;;;;;2.75;78.96;99479.00;5111339;28;20051;-71
2021/01/19 11:46:23;;;;;;;7.40;2.42;;;;;;;2.69;80.02;99469.81;5092812;28;20039;-71
2021/01/19 11:48:50;;;;;;;5.63;2.40;;;;;;;2.63;80.04;99460.63;5110571;28;20418;-72